Open Full Screen Window  High Contrast Mode
February 14, 2016 5:03 AM EST
Weather Information
Wind Direction
  ---
Wind Speed
  00 kt (0 mph)
Wind Gust
  00 kt (0 mph)
Altimeter
30.46 in
Visibility
10 SM
Temperature
-11° C
12° F
Dewpoint
-15° C
F
Humidity
73%
1hr Rain Fall
00.00 in.
24hr Rain Fall
00.00 in.
Sky Condition
Scattered @ 11,000 ft
VFR

METAR KI69 141003Z AUTO 00000KT 10SM SCT110 M11/M15 A3046 RMK AO2 T11151150

*Background is not an actual portrayal of the airport.